Back to Top

Language: 

My Weather Underground Personal Weather Station Historical Data with Graphs...

Delerius Weather Station Historical Data
Daily Summary for July 13, 2017 Units:  Metric    English   Both
« Previous Day
Next Day »
Daily Weekly Monthly Yearly Custom
  High: Low: Average:
Temperature: 23.8 °C 13.4 °C 17.8 °C
Dew Point: 12.9 °C 8.3 °C 10.5 °C
Humidity: 79 % 42 % 64 %
Wind Speed: 20.9 km/h 0 km/h 8.9 km/h
Wind Gust: 38.6 km/h - -
Wind:- - SW
Pressure: 1021.9 hPa 1015.5 hPa -
Precipitation: 0 mm    
Historical Graphs
 
 
Tabular Data for July 13, 2017
Time Temperature Dew Point Pressure Wind Wind Speed Wind Gust Humidity Rainfall Rate (Hourly) solar Conditions
00:04 14 °C 10.2 °C 1021.9 hPa SSW 3.2 km/h 12.9 km/h 78 % 0 mm 0 W/m2
00:09 14 °C 10.2 °C 1021.9 hPa SSW 3.2 km/h 12.9 km/h 78 % 0 mm 0 W/m2
00:14 14 °C 10.2 °C 1021.9 hPa SSW 3.2 km/h 9.7 km/h 78 % 0 mm 0 W/m2
00:18 13.9 °C 10.1 °C 1021.9 hPa South 1.6 km/h 8 km/h 78 % 0 mm 0 W/m2
00:24 13.9 °C 10.1 °C 1021.9 hPa Calm   6.4 km/h 78 % 0 mm 0 W/m2
00:29 13.8 °C 10.1 °C 1021.9 hPa SSW 1.6 km/h 6.4 km/h 78 % 0 mm 0 W/m2
00:34 13.7 °C 10.1 °C 1021.9 hPa SW 1.6 km/h 8 km/h 79 % 0 mm 0 W/m2
00:39 13.6 °C 10 °C 1021.9 hPa WSW 3.2 km/h 8 km/h 79 % 0 mm 0 W/m2
00:44 13.6 °C 10 °C 1021.9 hPa WSW 3.2 km/h 9.7 km/h 79 % 0 mm 0 W/m2
00:49 13.5 °C 9.9 °C 1021.9 hPa WSW 4.8 km/h 11.3 km/h 79 % 0 mm 0 W/m2
00:54 13.6 °C 10 °C 1021.9 hPa SW 6.4 km/h 14.5 km/h 79 % 0 mm 0 W/m2
00:59 13.6 °C 10 °C 1021.9 hPa SSW 8 km/h 16.1 km/h 79 % 0 mm 0 W/m2
01:04 13.7 °C 9.9 °C 1021.9 hPa SSW 9.7 km/h 16.1 km/h 78 % 0 mm 0 W/m2
01:09 13.8 °C 10.1 °C 1021.9 hPa SSW 9.7 km/h 17.7 km/h 78 % 0 mm 0 W/m2
01:14 13.8 °C 10.1 °C 1021.9 hPa SW 9.7 km/h 17.7 km/h 78 % 0 mm 0 W/m2
01:19 13.8 °C 10.1 °C 1021.6 hPa SW 8 km/h 14.5 km/h 78 % 0 mm 0 W/m2
01:24 13.7 °C 9.9 °C 1021.9 hPa SW 8 km/h 14.5 km/h 78 % 0 mm 0 W/m2
01:29 13.7 °C 9.9 °C 1021.6 hPa SW 8 km/h 12.9 km/h 78 % 0 mm 0 W/m2
01:34 13.7 °C 9.9 °C 1021.9 hPa SW 9.7 km/h 16.1 km/h 78 % 0 mm 0 W/m2
01:39 13.6 °C 9.8 °C 1021.9 hPa SW 9.7 km/h 16.1 km/h 78 % 0 mm 0 W/m2
01:44 13.6 °C 9.8 °C 1021.9 hPa SW 8 km/h 16.1 km/h 78 % 0 mm 0 W/m2
01:49 13.5 °C 9.7 °C 1021.9 hPa SW 6.4 km/h 16.1 km/h 78 % 0 mm 0 W/m2
01:54 13.4 °C 9.7 °C 1021.6 hPa SW 4.8 km/h 12.9 km/h 78 % 0 mm 0 W/m2
01:59 13.4 °C 9.4 °C 1021.9 hPa SW 6.4 km/h 11.3 km/h 77 % 0 mm 0 W/m2
02:04 13.4 °C 9.4 °C 1021.9 hPa SW 6.4 km/h 12.9 km/h 77 % 0 mm 0 W/m2
02:09 13.4 °C 9.4 °C 1021.6 hPa SW 8 km/h 12.9 km/h 77 % 0 mm 0 W/m2
02:14 13.4 °C 9.3 °C 1021.6 hPa SW 6.4 km/h 11.3 km/h 76 % 0 mm 0 W/m2
02:19 13.4 °C 9.3 °C 1021.6 hPa SW 6.4 km/h 12.9 km/h 76 % 0 mm 0 W/m2
02:24 13.5 °C 9.3 °C 1021.6 hPa SSW 6.4 km/h 14.5 km/h 76 % 0 mm 0 W/m2
02:29 13.6 °C 9.4 °C 1021.6 hPa SSW 8 km/h 14.5 km/h 76 % 0 mm 0 W/m2
02:34 13.6 °C 9.2 °C 1021.6 hPa SW 6.4 km/h 14.5 km/h 75 % 0 mm 0 W/m2
02:39 13.5 °C 9.2 °C 1021.6 hPa SW 4.8 km/h 12.9 km/h 75 % 0 mm 0 W/m2
02:44 13.5 °C 9.2 °C 1021.6 hPa SW 4.8 km/h 12.9 km/h 75 % 0 mm 0 W/m2
02:49 13.4 °C 9.1 °C 1021.6 hPa SW 4.8 km/h 12.9 km/h 75 % 0 mm 0 W/m2
02:54 13.4 °C 9.1 °C 1021.6 hPa SW 4.8 km/h 12.9 km/h 75 % 0 mm 0 W/m2
02:59 13.4 °C 9.1 °C 1021.6 hPa SW 4.8 km/h 14.5 km/h 75 % 0 mm 0 W/m2
03:04 13.4 °C 9.1 °C 1021.2 hPa SW 6.4 km/h 14.5 km/h 75 % 0 mm 0 W/m2
03:09 13.4 °C 8.8 °C 1021.2 hPa SW 6.4 km/h 12.9 km/h 74 % 0 mm 0 W/m2
03:14 13.5 °C 8.9 °C 1021.2 hPa WSW 6.4 km/h 9.7 km/h 74 % 0 mm 0 W/m2
03:19 13.5 °C 8.9 °C 1021.2 hPa SW 4.8 km/h 9.7 km/h 74 % 0 mm 0 W/m2
03:24 13.5 °C 8.8 °C 1021.2 hPa SW 3.2 km/h 9.7 km/h 73 % 0 mm 0 W/m2
03:29 13.6 °C 8.8 °C 1021.2 hPa SW 3.2 km/h 9.7 km/h 73 % 0 mm 0 W/m2
03:34 13.6 °C 8.8 °C 1021.2 hPa SW 3.2 km/h 9.7 km/h 73 % 0 mm 0 W/m2
03:39 13.6 °C 8.7 °C 1021.2 hPa SW 1.6 km/h 8 km/h 72 % 0 mm 0 W/m2
03:44 13.6 °C 8.8 °C 1021.2 hPa SW 1.6 km/h 6.4 km/h 73 % 0 mm 0 W/m2
03:49 13.6 °C 8.7 °C 1021.2 hPa SW 3.2 km/h 9.7 km/h 72 % 0 mm 0 W/m2
03:54 13.6 °C 8.7 °C 1021.2 hPa SW 4.8 km/h 11.3 km/h 72 % 0 mm 0 W/m2
03:59 13.6 °C 8.7 °C 1021.2 hPa SSW 4.8 km/h 11.3 km/h 72 % 0 mm 0 W/m2
04:04 13.6 °C 8.7 °C 1021.2 hPa SSW 3.2 km/h 11.3 km/h 72 % 0 mm 0 W/m2
04:09 13.6 °C 8.4 °C 1021.2 hPa SSW 3.2 km/h 11.3 km/h 71 % 0 mm 0 W/m2
04:14 13.6 °C 8.7 °C 1021.2 hPa South 4.8 km/h 9.7 km/h 72 % 0 mm 0 W/m2
04:19 13.6 °C 8.7 °C 1021.2 hPa South 3.2 km/h 11.3 km/h 72 % 0 mm 0 W/m2
04:24 13.6 °C 8.4 °C 1021.2 hPa SSW 4.8 km/h 12.9 km/h 71 % 0 mm 0 W/m2
04:29 13.7 °C 8.6 °C 1021.2 hPa SSW 8 km/h 14.5 km/h 71 % 0 mm 0 W/m2
04:34 13.7 °C 8.6 °C 1021.2 hPa SW 8 km/h 14.5 km/h 71 % 0 mm 0 W/m2
04:39 13.7 °C 8.6 °C 1021.2 hPa SW 8 km/h 14.5 km/h 71 % 0 mm 0 W/m2
04:44 13.7 °C 8.6 °C 1021.2 hPa SSW 6.4 km/h 11.3 km/h 71 % 0 mm 0 W/m2
04:49 13.7 °C 8.6 °C 1021.2 hPa South 6.4 km/h 14.5 km/h 71 % 0 mm 0 W/m2
04:55 13.7 °C 8.6 °C 1021.2 hPa South 6.4 km/h 16.1 km/h 71 % 0 mm 0 W/m2
05:00 13.7 °C 8.3 °C 1020.9 hPa South 6.4 km/h 17.7 km/h 70 % 0 mm 0 W/m2
05:05 13.8 °C 8.4 °C 1020.9 hPa South 6.4 km/h 17.7 km/h 70 % 0 mm 0 W/m2
05:10 13.8 °C 8.6 °C 1020.9 hPa South 4.8 km/h 12.9 km/h 71 % 0 mm 0 W/m2
05:15 13.7 °C 8.6 °C 1020.9 hPa South 4.8 km/h 11.3 km/h 71 % 0 mm 5 W/m2
05:20 13.7 °C 8.6 °C 1020.9 hPa South 3.2 km/h 9.7 km/h 71 % 0 mm 5 W/m2
05:25 13.7 °C 8.6 °C 1020.9 hPa SSW 1.6 km/h 8 km/h 71 % 0 mm 7 W/m2
05:30 13.7 °C 8.7 °C 1020.9 hPa SSW 1.6 km/h 8 km/h 72 % 0 mm 7 W/m2
05:35 13.6 °C 8.7 °C 1020.9 hPa Calm   3.2 km/h 72 % 0 mm 7 W/m2
05:40 13.6 °C 8.8 °C 1020.9 hPa Calm   1.6 km/h 73 % 0 mm 11 W/m2
05:45 13.4 °C 8.7 °C 1020.9 hPa Calm   1.6 km/h 73 % 0 mm 14 W/m2
05:50 13.5 °C 8.8 °C 1020.9 hPa Calm   6.4 km/h 73 % 0 mm 23 W/m2
05:55 13.6 °C 9.1 °C 1020.9 hPa Calm   6.4 km/h 74 % 0 mm 28 W/m2
06:00 13.6 °C 8.8 °C 1020.5 hPa WNW 1.6 km/h 9.7 km/h 73 % 0 mm 33 W/m2
06:05 13.7 °C 9.2 °C 1020.5 hPa WNW 1.6 km/h 9.7 km/h 74 % 0 mm 37 W/m2
06:10 13.8 °C 9.2 °C 1020.5 hPa Calm   3.2 km/h 74 % 0 mm 39 W/m2
06:15 13.9 °C 9.3 °C 1020.5 hPa Calm   3.2 km/h 74 % 0 mm 37 W/m2
06:20 13.9 °C 9.3 °C 1020.5 hPa Calm     74 % 0 mm 33 W/m2
06:25 14 °C 9.4 °C 1020.5 hPa Calm   4.8 km/h 74 % 0 mm 30 W/m2
06:30 14.1 °C 9.6 °C 1020.5 hPa WNW 1.6 km/h 6.4 km/h 74 % 0 mm 32 W/m2
06:35 14.2 °C 9.6 °C 1020.5 hPa WNW 3.2 km/h 9.7 km/h 74 % 0 mm 37 W/m2
06:40 14.3 °C 9.5 °C 1020.5 hPa West 4.8 km/h 16.1 km/h 73 % 0 mm 40 W/m2
06:45 14.4 °C 9.6 °C 1020.5 hPa WSW 4.8 km/h 16.1 km/h 73 % 0 mm 46 W/m2
06:50 14.6 °C 9.8 °C 1020.5 hPa SW 1.6 km/h 8 km/h 73 % 0 mm 51 W/m2
06:55 14.6 °C 9.8 °C 1020.5 hPa Calm   3.2 km/h 73 % 0 mm 54 W/m2
07:00 14.7 °C 9.7 °C 1020.5 hPa SW 1.6 km/h 9.7 km/h 72 % 0 mm 53 W/m2
07:05 14.8 °C 9.8 °C 1020.5 hPa SW 4.8 km/h 11.3 km/h 72 % 0 mm 63 W/m2
07:10 14.9 °C 9.9 °C 1020.5 hPa SW 6.4 km/h 11.3 km/h 72 % 0 mm 67 W/m2
07:15 15 °C 10 °C 1020.5 hPa SW 6.4 km/h 12.9 km/h 72 % 0 mm 67 W/m2
07:20 15.1 °C 10.1 °C 1020.5 hPa SW 6.4 km/h 12.9 km/h 72 % 0 mm 69 W/m2
07:25 15.1 °C 9.9 °C 1020.5 hPa SSW 6.4 km/h 16.1 km/h 71 % 0 mm 72 W/m2
07:30 15.2 °C 10.2 °C 1020.5 hPa SSW 6.4 km/h 16.1 km/h 72 % 0 mm 81 W/m2
07:35 15.2 °C 10.2 °C 1020.5 hPa SSW 6.4 km/h 14.5 km/h 72 % 0 mm 84 W/m2
07:40 15.3 °C 10.3 °C 1020.5 hPa SSW 3.2 km/h 9.7 km/h 72 % 0 mm 81 W/m2
07:45 15.3 °C 10.3 °C 1020.5 hPa SSW 1.6 km/h 11.3 km/h 72 % 0 mm 98 W/m2
07:50 15.4 °C 10.4 °C 1020.5 hPa South 3.2 km/h 11.3 km/h 72 % 0 mm 113 W/m2
07:55 15.4 °C 10.2 °C 1020.5 hPa South 4.8 km/h 9.7 km/h 71 % 0 mm 98 W/m2
08:00 15.6 °C 10.3 °C 1020.5 hPa SSW 6.4 km/h 9.7 km/h 71 % 0 mm 98 W/m2
08:01 15.6 °C 10.3 °C 1020.5 hPa SSW 6.4 km/h 11.3 km/h 71 % 0 mm 102 W/m2
08:06 15.6 °C 10.3 °C 1020.5 hPa SSW 8 km/h 12.9 km/h 71 % 0 mm 121 W/m2
08:11 15.6 °C 10.3 °C 1020.5 hPa SSW 8 km/h 12.9 km/h 71 % 0 mm 139 W/m2
08:16 15.7 °C 10.4 °C 1020.5 hPa South 8 km/h 16.1 km/h 71 % 0 mm 158 W/m2
08:21 15.8 °C 10.6 °C 1020.5 hPa SSW 6.4 km/h 16.1 km/h 71 % 0 mm 186 W/m2
08:26 15.8 °C 10.6 °C 1020.2 hPa SSW 6.4 km/h 16.1 km/h 71 % 0 mm 216 W/m2
08:31 16 °C 10.7 °C 1020.2 hPa SSW 4.8 km/h 16.1 km/h 71 % 0 mm 230 W/m2
08:36 16.1 °C 10.8 °C 1020.2 hPa SW 4.8 km/h 11.3 km/h 71 % 0 mm 234 W/m2
08:41 16.3 °C 11.1 °C 1020.2 hPa SW 4.8 km/h 9.7 km/h 71 % 0 mm 241 W/m2
08:46 16.4 °C 11.1 °C 1020.2 hPa SW 4.8 km/h 11.3 km/h 71 % 0 mm 232 W/m2
08:51 16.6 °C 11.3 °C 1020.2 hPa SSW 6.4 km/h 12.9 km/h 71 % 0 mm 239 W/m2
08:56 16.7 °C 11.4 °C 1020.2 hPa SSW 6.4 km/h 12.9 km/h 71 % 0 mm 239 W/m2
09:06 16.9 °C 11.4 °C 1020.2 hPa South 8 km/h 12.9 km/h 70 % 0 mm 241 W/m2
09:11 17.1 °C 11.6 °C 1020.2 hPa South 8 km/h 12.9 km/h 70 % 0 mm 227 W/m2
09:16 17.2 °C 11.7 °C 1020.2 hPa SSW 4.8 km/h 9.7 km/h 70 % 0 mm 223 W/m2
09:21 17.3 °C 11.8 °C 1020.2 hPa South 4.8 km/h 9.7 km/h 70 % 0 mm 294 W/m2
09:26 17.4 °C 11.7 °C 1020.2 hPa SSW 4.8 km/h 9.7 km/h 69 % 0 mm 325 W/m2
09:31 17.7 °C 12.2 °C 1020.2 hPa South 6.4 km/h 11.3 km/h 70 % 0 mm 285 W/m2
09:36 17.8 °C 12.1 °C 1020.2 hPa SSW 6.4 km/h 11.3 km/h 69 % 0 mm 309 W/m2
09:41 18.1 °C 12.6 °C 1020.2 hPa SSW 8 km/h 11.3 km/h 70 % 0 mm 835 W/m2
09:46 18.4 °C 12.6 °C 1020.2 hPa SW 8 km/h 14.5 km/h 69 % 0 mm 378 W/m2
09:51 18.6 °C 12.3 °C 1020.2 hPa SW 8 km/h 14.5 km/h 67 % 0 mm 376 W/m2
09:56 18.8 °C 12.3 °C 1019.9 hPa SSW 4.8 km/h 12.9 km/h 66 % 0 mm 751 W/m2
10:01 19.1 °C 12.6 °C 1019.9 hPa SSW 4.8 km/h 11.3 km/h 66 % 0 mm 708 W/m2
10:06 19.6 °C 12.6 °C 1019.9 hPa SW 9.7 km/h 22.5 km/h 64 % 0 mm 703 W/m2
10:11 19.8 °C 12.6 °C 1019.9 hPa SW 12.9 km/h 22.5 km/h 63 % 0 mm 766 W/m2
10:16 20 °C 12.5 °C 1019.9 hPa SW 12.9 km/h 20.9 km/h 62 % 0 mm 828 W/m2
10:21 20.2 °C 12.9 °C 1019.9 hPa SSW 12.9 km/h 20.9 km/h 63 % 0 mm 889 W/m2
10:26 20.6 °C 12.6 °C 1019.5 hPa SW 11.3 km/h 20.9 km/h 60 % 0 mm 896 W/m2
10:31 20.8 °C 11.7 °C 1019.5 hPa WSW 12.9 km/h 24.1 km/h 56 % 0 mm 471 W/m2
10:36 20.5 °C 11.7 °C 1019.5 hPa SW 17.7 km/h 29 km/h 57 % 0 mm 348 W/m2
10:41 20.3 °C 11.8 °C 1019.5 hPa SW 17.7 km/h 29 km/h 58 % 0 mm 301 W/m2
10:46 20.2 °C 11.7 °C 1019.5 hPa WSW 16.1 km/h 22.5 km/h 58 % 0 mm 318 W/m2
10:51 20.1 °C 12.1 °C 1019.5 hPa WSW 14.5 km/h 22.5 km/h 60 % 0 mm 366 W/m2
10:56 20.1 °C 11.6 °C 1019.5 hPa SW 12.9 km/h 19.3 km/h 58 % 0 mm 373 W/m2
10:58 20.1 °C 11.8 °C 1019.5 hPa SW 12.9 km/h 25.7 km/h 59 % 0 mm 373 W/m2
11:03 20.1 °C 11.8 °C 1019.5 hPa SW 16.1 km/h 30.6 km/h 59 % 0 mm 879 W/m2
11:08 20.3 °C 12.3 °C 1019.5 hPa SW 14.5 km/h 30.6 km/h 60 % 0 mm 877 W/m2
11:13 20.3 °C 12.3 °C 1019.5 hPa SW 12.9 km/h 22.5 km/h 60 % 0 mm 309 W/m2
11:18 20.1 °C 11.1 °C 1019.5 hPa SW 14.5 km/h 32.2 km/h 56 % 0 mm 292 W/m2
11:23 20 °C 11.5 °C 1019.5 hPa SW 16.1 km/h 32.2 km/h 58 % 0 mm 301 W/m2
11:28 19.9 °C 11.7 °C 1019.5 hPa SW 14.5 km/h 30.6 km/h 59 % 0 mm 359 W/m2
11:33 20 °C 11.5 °C 1019.5 hPa SW 12.9 km/h 20.9 km/h 58 % 0 mm 443 W/m2
11:38 20.5 °C 11.7 °C 1019.5 hPa SW 14.5 km/h 30.6 km/h 57 % 0 mm 814 W/m2
11:43 20.6 °C 10.9 °C 1019.5 hPa SW 16.1 km/h 30.6 km/h 54 % 0 mm 336 W/m2
11:48 20.5 °C 10.9 °C 1019.2 hPa WSW 16.1 km/h 25.7 km/h 54 % 0 mm 396 W/m2
11:53 20.6 °C 10.9 °C 1019.2 hPa WSW 14.5 km/h 25.7 km/h 54 % 0 mm 306 W/m2
11:58 20.5 °C 10.3 °C 1019.2 hPa WSW 14.5 km/h 24.1 km/h 52 % 0 mm 410 W/m2
12:03 20.5 °C 10.3 °C 1019.2 hPa SW 14.5 km/h 25.7 km/h 52 % 0 mm 417 W/m2
12:08 20.5 °C 9.7 °C 1019.2 hPa SW 17.7 km/h 32.2 km/h 50 % 0 mm 343 W/m2
12:13 20.4 °C 10.5 °C 1019.2 hPa SW 17.7 km/h 32.2 km/h 53 % 0 mm 863 W/m2
12:18 20.8 °C 10.6 °C 1018.8 hPa SW 14.5 km/h 24.1 km/h 52 % 0 mm 798 W/m2
12:23 21.4 °C 10.6 °C 1018.8 hPa SW 16.1 km/h 25.7 km/h 50 % 0 mm 677 W/m2
12:29 21.7 °C 10.2 °C 1018.8 hPa WSW 17.7 km/h 33.8 km/h 48 % 0 mm 510 W/m2
12:33 21.5 °C 10 °C 1018.8 hPa WSW 17.7 km/h 33.8 km/h 48 % 0 mm 694 W/m2
12:39 21.6 °C 9.5 °C 1018.8 hPa SW 16.1 km/h 30.6 km/h 46 % 0 mm 694 W/m2
12:44 21.5 °C 9.1 °C 1018.8 hPa WSW 16.1 km/h 30.6 km/h 45 % 0 mm 388 W/m2
12:49 21.5 °C 9.4 °C 1018.8 hPa WSW 17.7 km/h 29 km/h 46 % 0 mm 942 W/m2
12:54 21.7 °C 9.2 °C 1018.8 hPa SW 16.1 km/h 29 km/h 45 % 0 mm 789 W/m2
12:59 21.7 °C 9.9 °C 1018.8 hPa SW 16.1 km/h 29 km/h 47 % 0 mm 761 W/m2
13:04 21.6 °C 9.8 °C 1018.5 hPa SW 16.1 km/h 30.6 km/h 47 % 0 mm 686 W/m2
13:09 21.7 °C 10.2 °C 1018.5 hPa SW 14.5 km/h 30.6 km/h 48 % 0 mm 381 W/m2
13:14 21.6 °C 9.5 °C 1018.5 hPa SW 14.5 km/h 29 km/h 46 % 0 mm 390 W/m2
13:19 21.6 °C 10.1 °C 1018.5 hPa SW 16.1 km/h 29 km/h 48 % 0 mm 355 W/m2
13:24 21.6 °C 10.4 °C 1018.5 hPa SSW 16.1 km/h 29 km/h 49 % 0 mm 642 W/m2
13:29 21.6 °C 10.7 °C 1018.5 hPa SW 19.3 km/h 32.2 km/h 50 % 0 mm 707 W/m2
13:34 21.6 °C 10.4 °C 1018.5 hPa SW 19.3 km/h 32.2 km/h 49 % 0 mm 712 W/m2
13:39 21.7 °C 11.1 °C 1018.5 hPa SW 14.5 km/h 24.1 km/h 51 % 0 mm 348 W/m2
13:44 21.6 °C 10.7 °C 1018.2 hPa SW 14.5 km/h 25.7 km/h 50 % 0 mm 501 W/m2
13:49 21.6 °C 11.3 °C 1018.2 hPa SW 16.1 km/h 25.7 km/h 52 % 0 mm 701 W/m2
13:54 21.6 °C 11.3 °C 1018.2 hPa SW 17.7 km/h 32.2 km/h 52 % 0 mm 406 W/m2
13:59 21.4 °C 11.4 °C 1018.2 hPa SW 17.7 km/h 32.2 km/h 53 % 0 mm 348 W/m2
14:04 21.3 °C 11.6 °C 1018.2 hPa SW 16.1 km/h 25.7 km/h 54 % 0 mm 497 W/m2
14:09 21.4 °C 11.7 °C 1018.2 hPa SW 14.5 km/h 25.7 km/h 54 % 0 mm 385 W/m2
14:14 21.6 °C 12.2 °C 1018.2 hPa SW 14.5 km/h 29 km/h 55 % 0 mm 886 W/m2
14:19 21.8 °C 11.5 °C 1017.8 hPa SW 16.1 km/h 30.6 km/h 52 % 0 mm 717 W/m2
14:24 21.9 °C 11 °C 1017.8 hPa SSW 16.1 km/h 30.6 km/h 50 % 0 mm 724 W/m2
14:29 22.2 °C 11 °C 1017.8 hPa SSW 14.5 km/h 29 km/h 49 % 0 mm 784 W/m2
14:34 22.4 °C 10.8 °C 1017.8 hPa SW 16.1 km/h 24.1 km/h 48 % 0 mm 643 W/m2
14:39 22.4 °C 10.2 °C 1017.8 hPa WSW 17.7 km/h 38.6 km/h 46 % 0 mm 719 W/m2
14:44 22.5 °C 9.9 °C 1017.8 hPa WSW 19.3 km/h 38.6 km/h 45 % 0 mm 751 W/m2
14:49 22.5 °C 9.6 °C 1017.8 hPa WSW 19.3 km/h 33.8 km/h 44 % 0 mm 800 W/m2
14:54 22.4 °C 9.2 °C 1017.8 hPa SW 20.9 km/h 35.4 km/h 43 % 0 mm 788 W/m2
14:59 22.4 °C 9.6 °C 1017.5 hPa SW 17.7 km/h 35.4 km/h 44 % 0 mm 707 W/m2
15:04 22.5 °C 8.9 °C 1017.5 hPa SW 16.1 km/h 29 km/h 42 % 0 mm 666 W/m2
15:09 22.6 °C 9.7 °C 1017.5 hPa SW 16.1 km/h 32.2 km/h 44 % 0 mm 671 W/m2
15:14 22.4 °C 9.6 °C 1017.5 hPa SW 19.3 km/h 32.2 km/h 44 % 0 mm 564 W/m2
15:19 22.3 °C 9.8 °C 1017.5 hPa SW 19.3 km/h 32.2 km/h 45 % 0 mm 700 W/m2
15:24 22.6 °C 10.4 °C 1017.5 hPa WSW 16.1 km/h 25.7 km/h 46 % 0 mm 896 W/m2
15:29 23.1 °C 10.2 °C 1017.5 hPa West 17.7 km/h 32.2 km/h 44 % 0 mm 761 W/m2
15:34 23.4 °C 10.1 °C 1017.5 hPa West 17.7 km/h 32.2 km/h 43 % 0 mm 874 W/m2
15:39 23.2 °C 10.3 °C 1017.5 hPa WSW 16.1 km/h 30.6 km/h 44 % 0 mm 853 W/m2
15:44 23.3 °C 10.3 °C 1017.5 hPa West 16.1 km/h 30.6 km/h 44 % 0 mm 738 W/m2
15:49 22.9 °C 10 °C 1017.2 hPa West 14.5 km/h 24.1 km/h 44 % 0 mm 209 W/m2
15:54 22.7 °C 10.5 °C 1017.2 hPa West 14.5 km/h 22.5 km/h 46 % 0 mm 930 W/m2
15:59 22.9 °C 10.7 °C 1017.2 hPa West 14.5 km/h 22.5 km/h 46 % 0 mm 779 W/m2
16:05 23.2 °C 10.9 °C 1017.2 hPa West 12.9 km/h 22.5 km/h 46 % 0 mm 779 W/m2
16:10 23.5 °C 9.8 °C 1017.2 hPa WNW 14.5 km/h 29 km/h 42 % 0 mm 824 W/m2
16:15 23.7 °C 10 °C 1017.2 hPa WNW 16.1 km/h 30.6 km/h 42 % 0 mm 838 W/m2
16:20 23.8 °C 10.4 °C 1017.2 hPa WNW 16.1 km/h 30.6 km/h 43 % 0 mm 271 W/m2
16:25 23.7 °C 11.1 °C 1016.8 hPa WNW 14.5 km/h 24.1 km/h 45 % 0 mm 285 W/m2
16:30 23.4 °C 10.8 °C 1016.8 hPa WNW 11.3 km/h 24.1 km/h 45 % 0 mm 274 W/m2
16:40 23.1 °C 11.5 °C 1016.8 hPa WNW 9.7 km/h 17.7 km/h 48 % 0 mm 824 W/m2
16:45 23.3 °C 11 °C 1016.8 hPa WNW 11.3 km/h 19.3 km/h 46 % 0 mm 394 W/m2
16:50 23.4 °C 11.1 °C 1016.8 hPa WNW 12.9 km/h 20.9 km/h 46 % 0 mm 390 W/m2
16:55 23.4 °C 11.1 °C 1016.8 hPa WNW 12.9 km/h 20.9 km/h 46 % 0 mm 390 W/m2
17:00 23.5 °C 10.9 °C 1016.5 hPa WNW 12.9 km/h 22.5 km/h 45 % 0 mm 288 W/m2
17:05 23.4 °C 10.8 °C 1016.5 hPa WNW 12.9 km/h 22.5 km/h 45 % 0 mm 244 W/m2
17:10 23.3 °C 10.7 °C 1016.5 hPa WNW 12.9 km/h 19.3 km/h 45 % 0 mm 221 W/m2
17:15 22.9 °C 10.7 °C 1016.5 hPa West 11.3 km/h 19.3 km/h 46 % 0 mm 193 W/m2
17:20 22.8 °C 10.6 °C 1016.5 hPa West 12.9 km/h 17.7 km/h 46 % 0 mm 146 W/m2
17:25 22.6 °C 10.7 °C 1016.5 hPa WNW 12.9 km/h 19.3 km/h 47 % 0 mm 120 W/m2
17:30 22.3 °C 10.8 °C 1016.5 hPa WNW 11.3 km/h 19.3 km/h 48 % 0 mm 102 W/m2
17:35 22.2 °C 10.7 °C 1016.5 hPa WNW 9.7 km/h 16.1 km/h 48 % 0 mm 79 W/m2
17:40 21.9 °C 10.7 °C 1016.5 hPa West 9.7 km/h 16.1 km/h 49 % 0 mm 44 W/m2
17:45 21.7 °C 11.1 °C 1016.5 hPa West 8 km/h 19.3 km/h 51 % 0 mm 37 W/m2
17:50 21.6 °C 11 °C 1016.5 hPa West 6.4 km/h 17.7 km/h 51 % 0 mm 33 W/m2
17:55 21.2 °C 11.5 °C 1016.5 hPa WSW 9.7 km/h 22.5 km/h 54 % 0 mm 33 W/m2
18:00 20.7 °C 11.9 °C 1016.5 hPa SW 14.5 km/h 24.1 km/h 57 % 0 mm 35 W/m2
18:05 20.3 °C 12.3 °C 1016.5 hPa SW 14.5 km/h 25.7 km/h 60 % 0 mm 51 W/m2
18:10 20.1 °C 12.3 °C 1016.5 hPa SW 14.5 km/h 25.7 km/h 61 % 0 mm 56 W/m2
18:11 20.1 °C 12.3 °C 1016.5 hPa SW 14.5 km/h 25.7 km/h 61 % 0 mm 53 W/m2
18:16 19.9 °C 12.4 °C 1016.5 hPa SW 12.9 km/h 24.1 km/h 62 % 0 mm 51 W/m2
18:21 19.9 °C 11.7 °C 1016.5 hPa WSW 12.9 km/h 20.9 km/h 59 % 0 mm 63 W/m2
18:26 20 °C 10.9 °C 1016.5 hPa West 14.5 km/h 30.6 km/h 56 % 0 mm 79 W/m2
18:30 20.1 °C 11.1 °C 1016.5 hPa West 14.5 km/h 30.6 km/h 56 % 0 mm 53 W/m2
18:36 20.1 °C 11.1 °C 1016.5 hPa West 12.9 km/h 24.1 km/h 56 % 0 mm 40 W/m2
18:41 20 °C 10.9 °C 1016.5 hPa West 14.5 km/h 24.1 km/h 56 % 0 mm 35 W/m2
18:46 19.9 °C 11.1 °C 1016.5 hPa West 14.5 km/h 24.1 km/h 57 % 0 mm 30 W/m2
18:50 19.7 °C 10.9 °C 1016.5 hPa West 12.9 km/h 24.1 km/h 57 % 0 mm 37 W/m2
18:56 19.6 °C 11.4 °C 1016.5 hPa West 12.9 km/h 19.3 km/h 59 % 0 mm 51 W/m2
19:01 19.6 °C 11.6 °C 1016.5 hPa West 12.9 km/h 25.7 km/h 60 % 0 mm 51 W/m2
19:06 19.4 °C 11.9 °C 1016.5 hPa WNW 16.1 km/h 25.7 km/h 62 % 0 mm 42 W/m2
19:11 19.2 °C 12 °C 1016.5 hPa WNW 14.5 km/h 24.1 km/h 63 % 0 mm 37 W/m2
19:16 19.1 °C 12.1 °C 1016.5 hPa West 12.9 km/h 24.1 km/h 64 % 0 mm 39 W/m2
19:21 18.9 °C 12.2 °C 1016.5 hPa West 11.3 km/h 20.9 km/h 65 % 0 mm 49 W/m2
19:26 18.9 °C 12.2 °C 1016.5 hPa West 9.7 km/h 16.1 km/h 65 % 0 mm 213 W/m2
19:31 19 °C 12.5 °C 1016.1 hPa West 8 km/h 14.5 km/h 66 % 0 mm 258 W/m2
19:36 19.1 °C 12.4 °C 1016.5 hPa West 8 km/h 12.9 km/h 65 % 0 mm 244 W/m2
19:41 19.4 °C 12.7 °C 1016.1 hPa West 8 km/h 12.9 km/h 65 % 0 mm 132 W/m2
19:46 19.5 °C 12.3 °C 1016.5 hPa West 8 km/h 16.1 km/h 63 % 0 mm 223 W/m2
19:51 19.6 °C 12.4 °C 1016.1 hPa West 9.7 km/h 16.1 km/h 63 % 0 mm 116 W/m2
19:56 19.6 °C 12.4 °C 1016.1 hPa West 9.7 km/h 16.1 km/h 63 % 0 mm 69 W/m2
20:01 19.4 °C 12.2 °C 1016.1 hPa WSW 9.7 km/h 14.5 km/h 63 % 0 mm 77 W/m2
20:06 19.2 °C 12.2 °C 1016.1 hPa WSW 9.7 km/h 16.1 km/h 64 % 0 mm 47 W/m2
20:11 19.1 °C 12.1 °C 1016.5 hPa WSW 11.3 km/h 20.9 km/h 64 % 0 mm 37 W/m2
20:16 19 °C 12.1 °C 1016.1 hPa West 11.3 km/h 20.9 km/h 64 % 0 mm 40 W/m2
20:21 18.8 °C 11.4 °C 1016.5 hPa West 11.3 km/h 22.5 km/h 62 % 0 mm 35 W/m2
20:26 18.7 °C 11.3 °C 1016.1 hPa WNW 12.9 km/h 22.5 km/h 62 % 0 mm 30 W/m2
20:31 18.6 °C 11.2 °C 1016.1 hPa WNW 12.9 km/h 20.9 km/h 62 % 0 mm 25 W/m2
20:36 18.4 °C 11 °C 1016.1 hPa WNW 11.3 km/h 20.9 km/h 62 % 0 mm 21 W/m2
20:41 18.3 °C 10.9 °C 1016.1 hPa WNW 9.7 km/h 19.3 km/h 62 % 0 mm 11 W/m2
20:46 18.2 °C 11.1 °C 1016.1 hPa WNW 9.7 km/h 17.7 km/h 63 % 0 mm 5 W/m2
20:51 18.1 °C 10.9 °C 1016.1 hPa WNW 9.7 km/h 16.1 km/h 63 % 0 mm 5 W/m2
20:56 18 °C 11.1 °C 1016.1 hPa West 8 km/h 14.5 km/h 64 % 0 mm 0 W/m2
21:01 17.9 °C 11.2 °C 1016.1 hPa West 6.4 km/h 11.3 km/h 65 % 0 mm 0 W/m2
21:06 17.8 °C 11.1 °C 1016.1 hPa West 3.2 km/h 8 km/h 65 % 0 mm 0 W/m2
21:11 17.8 °C 11.3 °C 1016.1 hPa West 1.6 km/h 6.4 km/h 66 % 0 mm 5 W/m2
21:16 17.8 °C 11.3 °C 1015.8 hPa West 1.6 km/h 8 km/h 66 % 0 mm 0 W/m2
21:21 17.7 °C 11.3 °C 1015.8 hPa West 3.2 km/h 9.7 km/h 66 % 0 mm 0 W/m2
21:26 17.7 °C 11.3 °C 1016.1 hPa West 1.6 km/h 9.7 km/h 66 % 0 mm 0 W/m2
21:31 17.6 °C 11.2 °C 1016.1 hPa West 1.6 km/h 8 km/h 66 % 0 mm 0 W/m2
21:36 17.6 °C 11.4 °C 1016.1 hPa West 1.6 km/h 8 km/h 67 % 0 mm 0 W/m2
21:41 17.5 °C 11.3 °C 1015.8 hPa West 1.6 km/h 8 km/h 67 % 0 mm 0 W/m2
21:46 17.4 °C 11.2 °C 1015.8 hPa WSW 3.2 km/h 16.1 km/h 67 % 0 mm 0 W/m2
21:51 17.3 °C 11.3 °C 1015.8 hPa WSW 6.4 km/h 16.1 km/h 68 % 0 mm 0 W/m2
21:56 17.1 °C 11.2 °C 1015.8 hPa WSW 8 km/h 12.9 km/h 68 % 0 mm 0 W/m2
22:02 17.1 °C 11.2 °C 1015.8 hPa WSW 9.7 km/h 16.1 km/h 68 % 0 mm 0 W/m2
22:07 16.9 °C 11.2 °C 1015.8 hPa WSW 9.7 km/h 16.1 km/h 69 % 0 mm 0 W/m2
22:12 16.8 °C 11.1 °C 1015.8 hPa WSW 8 km/h 12.9 km/h 69 % 0 mm 0 W/m2
22:17 16.8 °C 11.3 °C 1015.8 hPa WSW 6.4 km/h 11.3 km/h 70 % 0 mm 0 W/m2
22:22 16.7 °C 11.2 °C 1015.8 hPa WSW 4.8 km/h 12.9 km/h 70 % 0 mm 0 W/m2
22:27 16.6 °C 11.1 °C 1015.8 hPa WSW 6.4 km/h 12.9 km/h 70 % 0 mm 0 W/m2
22:32 16.5 °C 11 °C 1015.8 hPa WSW 6.4 km/h 12.9 km/h 70 % 0 mm 0 W/m2
22:37 16.4 °C 10.7 °C 1015.8 hPa WSW 6.4 km/h 12.9 km/h 69 % 0 mm 0 W/m2
22:42 16.4 °C 10.7 °C 1015.8 hPa WSW 4.8 km/h 12.9 km/h 69 % 0 mm 0 W/m2
22:47 16.4 °C 10.7 °C 1015.5 hPa West 1.6 km/h 9.7 km/h 69 % 0 mm 0 W/m2
22:52 16.3 °C 10.6 °C 1015.8 hPa Calm   3.2 km/h 69 % 0 mm 0 W/m2
22:57 16.2 °C 10.7 °C 1015.5 hPa Calm   3.2 km/h 70 % 0 mm 0 W/m2
23:02 16.1 °C 10.8 °C 1015.5 hPa Calm   3.2 km/h 71 % 0 mm 0 W/m2
23:07 15.9 °C 10.7 °C 1015.5 hPa Calm   3.2 km/h 71 % 0 mm 0 W/m2
23:12 15.9 °C 10.8 °C 1015.8 hPa Calm   3.2 km/h 72 % 0 mm 0 W/m2
23:17 15.8 °C 10.8 °C 1015.5 hPa Calm   3.2 km/h 72 % 0 mm 0 W/m2
23:22 15.6 °C 10.8 °C 1015.5 hPa Calm   3.2 km/h 73 % 0 mm 0 W/m2
23:27 15.6 °C 10.8 °C 1015.5 hPa SW 1.6 km/h 8 km/h 73 % 0 mm 0 W/m2
23:32 15.6 °C 10.8 °C 1015.5 hPa SSW 1.6 km/h 8 km/h 73 % 0 mm 0 W/m2
23:37 15.7 °C 10.9 °C 1015.5 hPa SW 4.8 km/h 12.9 km/h 73 % 0 mm 0 W/m2
23:42 15.8 °C 10.8 °C 1015.5 hPa SW 6.4 km/h 12.9 km/h 72 % 0 mm 0 W/m2
23:47 15.9 °C 10.8 °C 1015.5 hPa SSW 3.2 km/h 9.7 km/h 72 % 0 mm 0 W/m2
23:52 15.9 °C 10.8 °C 1015.5 hPa SSW 1.6 km/h 9.7 km/h 72 % 0 mm 0 W/m2
23:57 15.9 °C 11.1 °C 1015.5 hPa SSW 1.6 km/h 6.4 km/h 73 % 0 mm 0 W/m2
Delerius-Weather
Compliments of Weather Underground - 2.25 mb

Data updates at regular intervals.